sensor_id;sensor_type;location;lat;lon;timestamp;P1;durP1;ratioP1;P2;durP2;ratioP2
34876;SDS011;21086;44.780;17.194;2023-02-01T00:00:15;12.75;;;8.20;;
34876;SDS011;21086;44.780;17.194;2023-02-01T00:02:42;20.00;;;12.90;;
34876;SDS011;21086;44.780;17.194;2023-02-01T00:05:09;17.60;;;11.13;;
34876;SDS011;21086;44.780;17.194;2023-02-01T00:07:37;18.17;;;11.50;;
34876;SDS011;21086;44.780;17.194;2023-02-01T00:10:04;12.27;;;6.80;;
34876;SDS011;21086;44.780;17.194;2023-02-01T00:12:32;13.75;;;8.27;;
34876;SDS011;21086;44.780;17.194;2023-02-01T00:18:02;6.65;;;4.72;;
34876;SDS011;21086;44.780;17.194;2023-02-01T00:20:29;11.70;;;8.18;;
34876;SDS011;21086;44.780;17.194;2023-02-01T00:26:14;23.90;;;16.40;;
34876;SDS011;21086;44.780;17.194;2023-02-01T00:29:14;25.77;;;16.70;;
34876;SDS011;21086;44.780;17.194;2023-02-01T00:38:08;103.00;;;48.38;;
34876;SDS011;21086;44.780;17.194;2023-02-01T00:43:25;27.33;;;15.35;;
34876;SDS011;21086;44.780;17.194;2023-02-01T00:48:27;31.73;;;17.60;;
34876;SDS011;21086;44.780;17.194;2023-02-01T00:53:44;22.92;;;12.70;;
34876;SDS011;21086;44.780;17.194;2023-02-01T00:56:11;22.15;;;11.60;;
34876;SDS011;21086;44.780;17.194;2023-02-01T00:58:39;13.55;;;7.57;;
34876;SDS011;21086;44.780;17.194;2023-02-01T01:03:58;21.13;;;11.15;;
34876;SDS011;21086;44.780;17.194;2023-02-01T01:06:26;16.75;;;8.73;;
34876;SDS011;21086;44.780;17.194;2023-02-01T01:08:55;19.58;;;8.73;;
34876;SDS011;21086;44.780;17.194;2023-02-01T01:16:28;15.00;;;9.40;;
34876;SDS011;21086;44.780;17.194;2023-02-01T01:18:56;13.40;;;9.25;;
34876;SDS011;21086;44.780;17.194;2023-02-01T01:21:24;12.18;;;7.75;;
34876;SDS011;21086;44.780;17.194;2023-02-01T01:23:52;11.30;;;7.90;;
34876;SDS011;21086;44.780;17.194;2023-02-01T01:26:21;11.18;;;7.05;;
34876;SDS011;21086;44.780;17.194;2023-02-01T01:28:49;8.70;;;6.30;;
34876;SDS011;21086;44.780;17.194;2023-02-01T01:31:17;5.55;;;4.13;;
34876;SDS011;21086;44.780;17.194;2023-02-01T01:37:02;7.60;;;4.75;;
34876;SDS011;21086;44.780;17.194;2023-02-01T01:42:45;6.72;;;4.68;;
34876;SDS011;21086;44.780;17.194;2023-02-01T01:45:31;8.05;;;5.82;;
34876;SDS011;21086;44.780;17.194;2023-02-01T01:50:34;8.70;;;6.22;;
34876;SDS011;21086;44.780;17.194;2023-02-01T01:53:06;12.45;;;7.82;;
34876;SDS011;21086;44.780;17.194;2023-02-01T01:55:37;12.05;;;7.85;;
34876;SDS011;21086;44.780;17.194;2023-02-01T02:00:49;14.13;;;8.75;;
34876;SDS011;21086;44.780;17.194;2023-02-01T02:03:27;10.32;;;6.40;;
34876;SDS011;21086;44.780;17.194;2023-02-01T02:06:00;19.25;;;12.10;;
34876;SDS011;21086;44.780;17.194;2023-02-01T02:08:30;16.55;;;11.60;;
34876;SDS011;21086;44.780;17.194;2023-02-01T02:10:57;14.88;;;10.07;;
34876;SDS011;21086;44.780;17.194;2023-02-01T02:13:34;12.45;;;8.77;;
34876;SDS011;21086;44.780;17.194;2023-02-01T02:16:08;11.63;;;6.68;;
34876;SDS011;21086;44.780;17.194;2023-02-01T02:35:45;9.75;;;6.70;;
34876;SDS011;21086;44.780;17.194;2023-02-01T02:41:31;10.77;;;7.78;;
34876;SDS011;21086;44.780;17.194;2023-02-01T02:46:59;11.38;;;7.60;;
34876;SDS011;21086;44.780;17.194;2023-02-01T02:50:05;7.80;;;5.05;;
34876;SDS011;21086;44.780;17.194;2023-02-01T02:53:13;8.90;;;5.97;;
34876;SDS011;21086;44.780;17.194;2023-02-01T02:59:19;10.02;;;6.68;;
34876;SDS011;21086;44.780;17.194;2023-02-01T03:02:09;12.43;;;8.70;;
34876;SDS011;21086;44.780;17.194;2023-02-01T03:10:37;10.52;;;6.68;;
34876;SDS011;21086;44.780;17.194;2023-02-01T03:21:18;11.20;;;8.77;;
34876;SDS011;21086;44.780;17.194;2023-02-01T03:23:58;14.02;;;9.57;;
34876;SDS011;21086;44.780;17.194;2023-02-01T03:26:29;16.60;;;10.55;;
34876;SDS011;21086;44.780;17.194;2023-02-01T03:29:00;17.00;;;11.40;;
34876;SDS011;21086;44.780;17.194;2023-02-01T03:31:39;11.70;;;8.98;;
34876;SDS011;21086;44.780;17.194;2023-02-01T03:40:16;12.80;;;8.75;;
34876;SDS011;21086;44.780;17.194;2023-02-01T03:46:04;15.43;;;9.50;;
34876;SDS011;21086;44.780;17.194;2023-02-01T03:48:35;10.07;;;6.88;;
34876;SDS011;21086;44.780;17.194;2023-02-01T03:53:39;6.38;;;3.72;;
34876;SDS011;21086;44.780;17.194;2023-02-01T03:56:07;9.00;;;5.78;;
34876;SDS011;21086;44.780;17.194;2023-02-01T03:58:35;8.45;;;3.33;;
34876;SDS011;21086;44.780;17.194;2023-02-01T04:01:02;6.97;;;4.75;;
34876;SDS011;21086;44.780;17.194;2023-02-01T04:03:29;5.00;;;3.72;;
34876;SDS011;21086;44.780;17.194;2023-02-01T04:08:31;7.25;;;3.13;;
34876;SDS011;21086;44.780;17.194;2023-02-01T04:13:47;5.70;;;4.15;;
34876;SDS011;21086;44.780;17.194;2023-02-01T04:16:14;5.38;;;3.35;;
34876;SDS011;21086;44.780;17.194;2023-02-01T04:18:41;12.88;;;8.45;;
34876;SDS011;21086;44.780;17.194;2023-02-01T04:21:08;12.23;;;8.10;;
34876;SDS011;21086;44.780;17.194;2023-02-01T04:23:35;15.07;;;9.45;;
34876;SDS011;21086;44.780;17.194;2023-02-01T04:29:01;12.27;;;8.82;;
34876;SDS011;21086;44.780;17.194;2023-02-01T04:31:34;12.27;;;8.27;;
34876;SDS011;21086;44.780;17.194;2023-02-01T04:34:02;7.93;;;5.38;;
34876;SDS011;21086;44.780;17.194;2023-02-01T04:36:30;28.58;;;19.15;;
34876;SDS011;21086;44.780;17.194;2023-02-01T04:41:32;16.60;;;10.35;;
34876;SDS011;21086;44.780;17.194;2023-02-01T04:43:59;20.00;;;11.35;;
34876;SDS011;21086;44.780;17.194;2023-02-01T05:00:45;6.80;;;3.67;;
34876;SDS011;21086;44.780;17.194;2023-02-01T05:03:12;5.07;;;3.38;;
34876;SDS011;21086;44.780;17.194;2023-02-01T05:05:39;4.47;;;3.05;;
34876;SDS011;21086;44.780;17.194;2023-02-01T05:08:06;3.33;;;2.35;;
34876;SDS011;21086;44.780;17.194;2023-02-01T05:10:33;5.43;;;4.15;;
34876;SDS011;21086;44.780;17.194;2023-02-01T05:13:00;4.57;;;2.83;;
34876;SDS011;21086;44.780;17.194;2023-02-01T05:15:45;6.07;;;3.92;;
34876;SDS011;21086;44.780;17.194;2023-02-01T05:18:12;6.45;;;4.15;;
34876;SDS011;21086;44.780;17.194;2023-02-01T05:26:27;6.90;;;4.88;;
34876;SDS011;21086;44.780;17.194;2023-02-01T05:28:54;8.82;;;5.18;;
34876;SDS011;21086;44.780;17.194;2023-02-01T05:31:21;6.35;;;4.43;;
34876;SDS011;21086;44.780;17.194;2023-02-01T05:33:48;10.13;;;6.50;;
34876;SDS011;21086;44.780;17.194;2023-02-01T05:36:15;7.68;;;5.45;;
34876;SDS011;21086;44.780;17.194;2023-02-01T05:41:39;9.40;;;4.95;;
34876;SDS011;21086;44.780;17.194;2023-02-01T05:44:06;14.43;;;5.93;;
34876;SDS011;21086;44.780;17.194;2023-02-01T05:46:36;10.15;;;5.40;;
34876;SDS011;21086;44.780;17.194;2023-02-01T05:51:38;6.53;;;4.75;;
34876;SDS011;21086;44.780;17.194;2023-02-01T05:57:00;9.80;;;5.88;;
34876;SDS011;21086;44.780;17.194;2023-02-01T05:59:26;9.73;;;6.45;;
34876;SDS011;21086;44.780;17.194;2023-02-01T06:01:53;8.00;;;6.00;;
34876;SDS011;21086;44.780;17.194;2023-02-01T06:04:21;12.27;;;7.78;;
34876;SDS011;21086;44.780;17.194;2023-02-01T06:09:23;10.77;;;7.30;;
34876;SDS011;21086;44.780;17.194;2023-02-01T06:11:51;15.20;;;9.80;;
34876;SDS011;21086;44.780;17.194;2023-02-01T06:16:53;11.55;;;9.13;;
34876;SDS011;21086;44.780;17.194;2023-02-01T06:19:21;12.43;;;9.07;;
34876;SDS011;21086;44.780;17.194;2023-02-01T06:21:49;16.30;;;11.30;;
34876;SDS011;21086;44.780;17.194;2023-02-01T06:24:16;14.40;;;8.75;;
34876;SDS011;21086;44.780;17.194;2023-02-01T06:29:11;17.55;;;10.13;;
34876;SDS011;21086;44.780;17.194;2023-02-01T06:31:38;16.98;;;10.77;;
34876;SDS011;21086;44.780;17.194;2023-02-01T06:34:06;16.33;;;11.80;;
34876;SDS011;21086;44.780;17.194;2023-02-01T06:36:32;12.98;;;10.80;;
34876;SDS011;21086;44.780;17.194;2023-02-01T06:38:59;25.30;;;14.85;;
34876;SDS011;21086;44.780;17.194;2023-02-01T06:44:11;14.57;;;9.55;;
34876;SDS011;21086;44.780;17.194;2023-02-01T06:46:39;15.55;;;11.93;;
34876;SDS011;21086;44.780;17.194;2023-02-01T06:51:41;27.98;;;13.77;;
34876;SDS011;21086;44.780;17.194;2023-02-01T06:54:08;28.42;;;17.80;;
34876;SDS011;21086;44.780;17.194;2023-02-01T06:56:35;18.42;;;13.40;;
34876;SDS011;21086;44.780;17.194;2023-02-01T06:59:05;45.58;;;29.13;;
34876;SDS011;21086;44.780;17.194;2023-02-01T07:01:34;30.70;;;21.17;;
34876;SDS011;21086;44.780;17.194;2023-02-01T07:04:04;36.25;;;22.25;;
34876;SDS011;21086;44.780;17.194;2023-02-01T07:09:23;24.05;;;16.45;;
34876;SDS011;21086;44.780;17.194;2023-02-01T07:14:52;22.98;;;14.10;;
34876;SDS011;21086;44.780;17.194;2023-02-01T07:17:29;22.75;;;12.05;;
34876;SDS011;21086;44.780;17.194;2023-02-01T07:19:57;29.08;;;16.73;;
34876;SDS011;21086;44.780;17.194;2023-02-01T07:22:26;25.55;;;15.00;;
34876;SDS011;21086;44.780;17.194;2023-02-01T07:27:28;11.00;;;7.40;;
34876;SDS011;21086;44.780;17.194;2023-02-01T07:29:55;19.90;;;12.88;;
34876;SDS011;21086;44.780;17.194;2023-02-01T07:32:22;18.42;;;12.02;;
34876;SDS011;21086;44.780;17.194;2023-02-01T07:34:49;15.13;;;10.60;;
34876;SDS011;21086;44.780;17.194;2023-02-01T07:40:02;12.40;;;7.80;;
34876;SDS011;21086;44.780;17.194;2023-02-01T07:44:58;14.15;;;10.15;;
34876;SDS011;21086;44.780;17.194;2023-02-01T07:50:15;10.15;;;6.72;;
34876;SDS011;21086;44.780;17.194;2023-02-01T07:52:42;30.05;;;18.17;;
34876;SDS011;21086;44.780;17.194;2023-02-01T07:55:10;31.70;;;20.90;;
34876;SDS011;21086;44.780;17.194;2023-02-01T08:00:24;24.60;;;18.95;;
34876;SDS011;21086;44.780;17.194;2023-02-01T08:03:18;13.15;;;8.45;;
34876;SDS011;21086;44.780;17.194;2023-02-01T08:10:50;5.45;;;3.55;;
34876;SDS011;21086;44.780;17.194;2023-02-01T08:13:17;11.18;;;5.82;;
34876;SDS011;21086;44.780;17.194;2023-02-01T08:15:44;6.75;;;4.75;;
34876;SDS011;21086;44.780;17.194;2023-02-01T08:18:11;5.88;;;3.72;;
34876;SDS011;21086;44.780;17.194;2023-02-01T08:20:42;25.48;;;18.05;;
34876;SDS011;21086;44.780;17.194;2023-02-01T08:23:11;14.05;;;10.35;;
34876;SDS011;21086;44.780;17.194;2023-02-01T08:25:39;12.80;;;8.70;;
34876;SDS011;21086;44.780;17.194;2023-02-01T08:28:06;8.18;;;5.18;;
34876;SDS011;21086;44.780;17.194;2023-02-01T08:30:33;16.70;;;12.13;;
34876;SDS011;21086;44.780;17.194;2023-02-01T08:33:00;11.18;;;6.93;;
34876;SDS011;21086;44.780;17.194;2023-02-01T08:35:27;18.13;;;13.90;;
34876;SDS011;21086;44.780;17.194;2023-02-01T08:38:08;15.32;;;11.55;;
34876;SDS011;21086;44.780;17.194;2023-02-01T08:40:35;16.15;;;11.50;;
34876;SDS011;21086;44.780;17.194;2023-02-01T08:43:02;13.43;;;6.93;;
34876;SDS011;21086;44.780;17.194;2023-02-01T08:45:29;5.68;;;4.35;;
34876;SDS011;21086;44.780;17.194;2023-02-01T08:47:57;5.18;;;3.70;;
34876;SDS011;21086;44.780;17.194;2023-02-01T08:50:24;4.45;;;2.78;;
34876;SDS011;21086;44.780;17.194;2023-02-01T08:55:20;5.30;;;2.72;;
34876;SDS011;21086;44.780;17.194;2023-02-01T08:57:47;7.40;;;3.53;;
34876;SDS011;21086;44.780;17.194;2023-02-01T09:00:16;4.90;;;3.20;;
34876;SDS011;21086;44.780;17.194;2023-02-01T09:05:19;5.75;;;3.65;;
34876;SDS011;21086;44.780;17.194;2023-02-01T09:07:48;4.45;;;2.83;;
34876;SDS011;21086;44.780;17.194;2023-02-01T09:10:15;4.95;;;3.20;;
34876;SDS011;21086;44.780;17.194;2023-02-01T09:12:55;3.83;;;2.47;;
34876;SDS011;21086;44.780;17.194;2023-02-01T09:27:07;6.68;;;4.18;;
34876;SDS011;21086;44.780;17.194;2023-02-01T09:29:34;4.70;;;3.08;;
34876;SDS011;21086;44.780;17.194;2023-02-01T09:34:47;5.22;;;3.47;;
34876;SDS011;21086;44.780;17.194;2023-02-01T09:42:49;2.95;;;1.92;;
34876;SDS011;21086;44.780;17.194;2023-02-01T09:48:22;2.97;;;1.95;;
34876;SDS011;21086;44.780;17.194;2023-02-01T09:50:57;3.00;;;1.88;;
34876;SDS011;21086;44.780;17.194;2023-02-01T09:53:33;2.50;;;1.85;;
34876;SDS011;21086;44.780;17.194;2023-02-01T09:56:04;3.10;;;2.17;;
34876;SDS011;21086;44.780;17.194;2023-02-01T09:58:38;4.03;;;2.25;;
34876;SDS011;21086;44.780;17.194;2023-02-01T10:01:20;5.22;;;3.05;;
34876;SDS011;21086;44.780;17.194;2023-02-01T10:03:49;4.53;;;2.80;;
34876;SDS011;21086;44.780;17.194;2023-02-01T10:11:40;5.63;;;3.63;;
34876;SDS011;21086;44.780;17.194;2023-02-01T10:16:55;6.60;;;4.53;;
34876;SDS011;21086;44.780;17.194;2023-02-01T10:19:41;12.93;;;4.15;;
34876;SDS011;21086;44.780;17.194;2023-02-01T10:25:33;6.65;;;4.25;;
34876;SDS011;21086;44.780;17.194;2023-02-01T10:28:08;5.95;;;4.63;;
34876;SDS011;21086;44.780;17.194;2023-02-01T10:30:43;7.30;;;4.65;;
34876;SDS011;21086;44.780;17.194;2023-02-01T10:33:15;6.13;;;4.90;;
34876;SDS011;21086;44.780;17.194;2023-02-01T10:35:45;4.85;;;3.42;;
34876;SDS011;21086;44.780;17.194;2023-02-01T10:38:26;6.95;;;4.50;;
34876;SDS011;21086;44.780;17.194;2023-02-01T10:40:56;9.48;;;4.18;;
34876;SDS011;21086;44.780;17.194;2023-02-01T10:48:53;3.63;;;2.83;;
34876;SDS011;21086;44.780;17.194;2023-02-01T10:51:24;2.70;;;2.05;;
34876;SDS011;21086;44.780;17.194;2023-02-01T10:54:17;2.50;;;2.10;;
34876;SDS011;21086;44.780;17.194;2023-02-01T10:56:57;3.22;;;2.40;;
34876;SDS011;21086;44.780;17.194;2023-02-01T10:59:27;15.82;;;11.85;;
34876;SDS011;21086;44.780;17.194;2023-02-01T11:11:20;2.85;;;2.05;;
34876;SDS011;21086;44.780;17.194;2023-02-01T11:16:35;3.50;;;2.28;;
34876;SDS011;21086;44.780;17.194;2023-02-01T11:19:03;3.20;;;2.50;;
34876;SDS011;21086;44.780;17.194;2023-02-01T11:21:32;3.78;;;2.80;;
34876;SDS011;21086;44.780;17.194;2023-02-01T11:24:01;4.30;;;3.47;;
34876;SDS011;21086;44.780;17.194;2023-02-01T11:26:35;5.43;;;3.35;;
34876;SDS011;21086;44.780;17.194;2023-02-01T11:29:12;5.72;;;2.90;;
34876;SDS011;21086;44.780;17.194;2023-02-01T11:31:44;3.47;;;2.33;;
34876;SDS011;21086;44.780;17.194;2023-02-01T11:34:14;3.90;;;2.65;;
34876;SDS011;21086;44.780;17.194;2023-02-01T11:36:49;5.13;;;3.25;;
34876;SDS011;21086;44.780;17.194;2023-02-01T11:42:03;5.20;;;4.00;;
34876;SDS011;21086;44.780;17.194;2023-02-01T11:44:40;6.15;;;3.10;;
34876;SDS011;21086;44.780;17.194;2023-02-01T11:47:25;4.55;;;3.15;;
34876;SDS011;21086;44.780;17.194;2023-02-01T11:50:00;6.70;;;4.75;;
34876;SDS011;21086;44.780;17.194;2023-02-01T11:52:48;11.70;;;7.82;;
34876;SDS011;21086;44.780;17.194;2023-02-01T12:01:05;3.13;;;2.70;;
34876;SDS011;21086;44.780;17.194;2023-02-01T12:33:35;3.63;;;2.33;;
34876;SDS011;21086;44.780;17.194;2023-02-01T12:36:25;5.18;;;2.47;;
34876;SDS011;21086;44.780;17.194;2023-02-01T12:39:23;5.00;;;2.97;;
34876;SDS011;21086;44.780;17.194;2023-02-01T12:41:57;3.00;;;2.08;;
34876;SDS011;21086;44.780;17.194;2023-02-01T12:44:47;2.80;;;2.03;;
34876;SDS011;21086;44.780;17.194;2023-02-01T12:49:59;3.30;;;2.30;;
34876;SDS011;21086;44.780;17.194;2023-02-01T12:57:53;3.33;;;2.38;;
34876;SDS011;21086;44.780;17.194;2023-02-01T13:00:32;5.45;;;3.10;;
34876;SDS011;21086;44.780;17.194;2023-02-01T13:03:09;5.68;;;3.33;;
34876;SDS011;21086;44.780;17.194;2023-02-01T13:08:41;6.07;;;4.22;;
34876;SDS011;21086;44.780;17.194;2023-02-01T13:11:18;3.22;;;2.47;;
34876;SDS011;21086;44.780;17.194;2023-02-01T13:14:10;4.10;;;2.90;;
34876;SDS011;21086;44.780;17.194;2023-02-01T13:17:03;4.18;;;2.05;;
34876;SDS011;21086;44.780;17.194;2023-02-01T13:22:29;3.00;;;1.88;;
34876;SDS011;21086;44.780;17.194;2023-02-01T13:27:43;2.63;;;1.60;;
34876;SDS011;21086;44.780;17.194;2023-02-01T13:30:26;2.70;;;1.70;;
34876;SDS011;21086;44.780;17.194;2023-02-01T13:44:57;1.77;;;1.38;;
34876;SDS011;21086;44.780;17.194;2023-02-01T13:50:03;2.45;;;1.50;;
34876;SDS011;21086;44.780;17.194;2023-02-01T13:52:45;3.78;;;2.00;;
34876;SDS011;21086;44.780;17.194;2023-02-01T13:57:48;3.00;;;2.03;;
34876;SDS011;21086;44.780;17.194;2023-02-01T14:37:11;6.05;;;4.45;;
34876;SDS011;21086;44.780;17.194;2023-02-01T14:47:50;9.07;;;4.57;;
34876;SDS011;21086;44.780;17.194;2023-02-01T14:50:23;5.45;;;3.72;;
34876;SDS011;21086;44.780;17.194;2023-02-01T14:53:01;9.68;;;5.85;;
34876;SDS011;21086;44.780;17.194;2023-02-01T14:58:27;7.40;;;4.65;;
34876;SDS011;21086;44.780;17.194;2023-02-01T15:01:20;8.18;;;5.07;;
34876;SDS011;21086;44.780;17.194;2023-02-01T15:04:00;12.27;;;6.57;;
34876;SDS011;21086;44.780;17.194;2023-02-01T15:06:46;9.90;;;7.13;;
34876;SDS011;21086;44.780;17.194;2023-02-01T15:09:17;13.55;;;10.00;;
34876;SDS011;21086;44.780;17.194;2023-02-01T15:14:42;35.97;;;21.65;;
34876;SDS011;21086;44.780;17.194;2023-02-01T15:19:39;25.95;;;17.60;;
34876;SDS011;21086;44.780;17.194;2023-02-01T15:22:34;25.35;;;16.20;;
34876;SDS011;21086;44.780;17.194;2023-02-01T15:25:01;50.13;;;30.77;;
34876;SDS011;21086;44.780;17.194;2023-02-01T15:27:29;38.83;;;25.15;;
34876;SDS011;21086;44.780;17.194;2023-02-01T15:30:05;45.30;;;30.58;;
34876;SDS011;21086;44.780;17.194;2023-02-01T15:33:03;45.55;;;30.73;;
34876;SDS011;21086;44.780;17.194;2023-02-01T15:35:50;41.08;;;30.88;;
34876;SDS011;21086;44.780;17.194;2023-02-01T15:40:55;52.10;;;33.90;;
34876;SDS011;21086;44.780;17.194;2023-02-01T15:43:36;40.83;;;27.92;;
34876;SDS011;21086;44.780;17.194;2023-02-01T15:46:10;44.42;;;32.78;;
34876;SDS011;21086;44.780;17.194;2023-02-01T15:48:43;41.28;;;30.70;;
34876;SDS011;21086;44.780;17.194;2023-02-01T15:51:11;35.95;;;24.35;;
34876;SDS011;21086;44.780;17.194;2023-02-01T15:53:43;42.13;;;30.83;;
34876;SDS011;21086;44.780;17.194;2023-02-01T15:56:14;45.35;;;31.52;;
34876;SDS011;21086;44.780;17.194;2023-02-01T15:58:43;39.03;;;25.52;;
34876;SDS011;21086;44.780;17.194;2023-02-01T16:01:13;41.08;;;28.65;;
34876;SDS011;21086;44.780;17.194;2023-02-01T16:03:42;56.60;;;36.30;;
34876;SDS011;21086;44.780;17.194;2023-02-01T16:06:26;47.88;;;32.55;;
34876;SDS011;21086;44.780;17.194;2023-02-01T16:09:13;53.65;;;40.92;;
34876;SDS011;21086;44.780;17.194;2023-02-01T16:11:49;91.32;;;43.83;;
34876;SDS011;21086;44.780;17.194;2023-02-01T16:14:26;42.72;;;34.72;;
34876;SDS011;21086;44.780;17.194;2023-02-01T16:16:54;81.03;;;57.65;;
34876;SDS011;21086;44.780;17.194;2023-02-01T16:19:22;90.75;;;64.85;;
34876;SDS011;21086;44.780;17.194;2023-02-01T16:21:54;78.97;;;58.13;;
34876;SDS011;21086;44.780;17.194;2023-02-01T16:24:22;86.70;;;60.92;;
34876;SDS011;21086;44.780;17.194;2023-02-01T16:26:51;42.95;;;33.30;;
34876;SDS011;21086;44.780;17.194;2023-02-01T16:29:23;32.50;;;23.40;;
34876;SDS011;21086;44.780;17.194;2023-02-01T16:31:50;31.13;;;21.17;;
34876;SDS011;21086;44.780;17.194;2023-02-01T16:34:18;32.00;;;23.85;;
34876;SDS011;21086;44.780;17.194;2023-02-01T16:36:49;35.83;;;26.25;;
34876;SDS011;21086;44.780;17.194;2023-02-01T16:39:19;37.88;;;26.08;;
34876;SDS011;21086;44.780;17.194;2023-02-01T16:41:46;37.15;;;27.05;;
34876;SDS011;21086;44.780;17.194;2023-02-01T16:44:14;39.55;;;27.77;;
34876;SDS011;21086;44.780;17.194;2023-02-01T16:46:42;41.25;;;30.90;;
34876;SDS011;21086;44.780;17.194;2023-02-01T16:49:25;40.13;;;30.73;;
34876;SDS011;21086;44.780;17.194;2023-02-01T16:51:54;44.28;;;32.65;;
34876;SDS011;21086;44.780;17.194;2023-02-01T16:54:24;60.35;;;40.22;;
34876;SDS011;21086;44.780;17.194;2023-02-01T16:56:53;50.50;;;35.58;;
34876;SDS011;21086;44.780;17.194;2023-02-01T16:59:21;49.67;;;35.65;;
34876;SDS011;21086;44.780;17.194;2023-02-01T17:01:48;49.92;;;34.95;;
34876;SDS011;21086;44.780;17.194;2023-02-01T17:04:15;47.42;;;34.38;;
34876;SDS011;21086;44.780;17.194;2023-02-01T17:06:42;53.72;;;38.88;;
34876;SDS011;21086;44.780;17.194;2023-02-01T17:09:13;60.10;;;43.53;;
34876;SDS011;21086;44.780;17.194;2023-02-01T17:11:40;67.05;;;46.00;;
34876;SDS011;21086;44.780;17.194;2023-02-01T17:14:15;50.08;;;36.28;;
34876;SDS011;21086;44.780;17.194;2023-02-01T17:16:44;53.75;;;38.40;;
34876;SDS011;21086;44.780;17.194;2023-02-01T17:19:16;60.78;;;41.70;;
34876;SDS011;21086;44.780;17.194;2023-02-01T17:21:46;54.78;;;36.08;;
34876;SDS011;21086;44.780;17.194;2023-02-01T17:24:19;58.47;;;37.35;;
34876;SDS011;21086;44.780;17.194;2023-02-01T17:26:52;52.50;;;35.78;;
34876;SDS011;21086;44.780;17.194;2023-02-01T17:29:19;55.92;;;36.70;;
34876;SDS011;21086;44.780;17.194;2023-02-01T17:31:47;45.63;;;31.67;;
34876;SDS011;21086;44.780;17.194;2023-02-01T17:34:17;43.30;;;28.80;;
34876;SDS011;21086;44.780;17.194;2023-02-01T17:36:48;51.75;;;34.50;;
34876;SDS011;21086;44.780;17.194;2023-02-01T17:39:17;47.95;;;33.38;;
34876;SDS011;21086;44.780;17.194;2023-02-01T17:42:03;55.65;;;41.00;;
34876;SDS011;21086;44.780;17.194;2023-02-01T17:44:31;43.75;;;30.30;;
34876;SDS011;21086;44.780;17.194;2023-02-01T17:46:58;31.38;;;22.10;;
34876;SDS011;21086;44.780;17.194;2023-02-01T17:49:25;22.10;;;14.75;;
34876;SDS011;21086;44.780;17.194;2023-02-01T17:51:56;34.00;;;22.85;;
34876;SDS011;21086;44.780;17.194;2023-02-01T17:54:23;31.10;;;22.00;;
34876;SDS011;21086;44.780;17.194;2023-02-01T17:56:52;26.50;;;17.17;;
34876;SDS011;21086;44.780;17.194;2023-02-01T17:59:19;25.75;;;17.30;;
34876;SDS011;21086;44.780;17.194;2023-02-01T18:01:48;24.60;;;17.30;;
34876;SDS011;21086;44.780;17.194;2023-02-01T18:04:15;26.45;;;16.67;;
34876;SDS011;21086;44.780;17.194;2023-02-01T18:06:44;25.98;;;18.20;;
34876;SDS011;21086;44.780;17.194;2023-02-01T18:09:11;24.05;;;16.77;;
34876;SDS011;21086;44.780;17.194;2023-02-01T18:11:37;28.45;;;18.05;;
34876;SDS011;21086;44.780;17.194;2023-02-01T18:14:04;31.52;;;19.52;;
34876;SDS011;21086;44.780;17.194;2023-02-01T18:16:32;30.58;;;22.50;;
34876;SDS011;21086;44.780;17.194;2023-02-01T18:19:00;28.60;;;20.08;;
34876;SDS011;21086;44.780;17.194;2023-02-01T18:21:31;46.30;;;30.77;;
34876;SDS011;21086;44.780;17.194;2023-02-01T18:24:02;37.50;;;25.63;;
34876;SDS011;21086;44.780;17.194;2023-02-01T18:26:29;23.92;;;15.70;;
34876;SDS011;21086;44.780;17.194;2023-02-01T18:28:56;32.72;;;20.30;;
34876;SDS011;21086;44.780;17.194;2023-02-01T18:31:24;33.78;;;25.20;;
34876;SDS011;21086;44.780;17.194;2023-02-01T18:33:53;32.92;;;23.30;;
34876;SDS011;21086;44.780;17.194;2023-02-01T18:36:22;22.13;;;15.93;;
34876;SDS011;21086;44.780;17.194;2023-02-01T18:38:49;27.08;;;17.05;;
34876;SDS011;21086;44.780;17.194;2023-02-01T18:41:17;23.60;;;17.55;;
34876;SDS011;21086;44.780;17.194;2023-02-01T18:43:49;26.75;;;17.08;;
34876;SDS011;21086;44.780;17.194;2023-02-01T18:46:16;20.42;;;14.23;;
34876;SDS011;21086;44.780;17.194;2023-02-01T18:48:44;20.50;;;14.68;;
34876;SDS011;21086;44.780;17.194;2023-02-01T18:51:12;21.63;;;16.30;;
34876;SDS011;21086;44.780;17.194;2023-02-01T18:53:43;21.60;;;15.35;;
34876;SDS011;21086;44.780;17.194;2023-02-01T18:56:10;22.27;;;16.70;;
34876;SDS011;21086;44.780;17.194;2023-02-01T18:58:39;16.20;;;11.77;;
34876;SDS011;21086;44.780;17.194;2023-02-01T19:01:07;24.60;;;16.23;;
34876;SDS011;21086;44.780;17.194;2023-02-01T19:03:41;45.72;;;31.60;;
34876;SDS011;21086;44.780;17.194;2023-02-01T19:06:21;65.15;;;41.17;;
34876;SDS011;21086;44.780;17.194;2023-02-01T19:08:48;102.53;;;68.20;;
34876;SDS011;21086;44.780;17.194;2023-02-01T19:11:16;132.02;;;82.00;;
34876;SDS011;21086;44.780;17.194;2023-02-01T19:13:43;115.72;;;68.35;;
34876;SDS011;21086;44.780;17.194;2023-02-01T19:16:11;89.47;;;55.90;;
34876;SDS011;21086;44.780;17.194;2023-02-01T19:18:38;110.68;;;73.57;;
34876;SDS011;21086;44.780;17.194;2023-02-01T19:21:07;126.40;;;82.57;;
34876;SDS011;21086;44.780;17.194;2023-02-01T19:23:39;98.35;;;66.80;;
34876;SDS011;21086;44.780;17.194;2023-02-01T19:26:11;84.35;;;52.50;;
34876;SDS011;21086;44.780;17.194;2023-02-01T19:28:40;144.15;;;91.45;;
34876;SDS011;21086;44.780;17.194;2023-02-01T19:31:07;66.80;;;44.88;;
34876;SDS011;21086;44.780;17.194;2023-02-01T19:33:34;72.45;;;43.78;;
34876;SDS011;21086;44.780;17.194;2023-02-01T19:36:03;59.15;;;37.08;;
34876;SDS011;21086;44.780;17.194;2023-02-01T19:38:32;82.00;;;51.28;;
34876;SDS011;21086;44.780;17.194;2023-02-01T19:40:59;105.20;;;62.13;;
34876;SDS011;21086;44.780;17.194;2023-02-01T19:43:26;127.15;;;80.03;;
34876;SDS011;21086;44.780;17.194;2023-02-01T19:45:53;132.88;;;86.95;;
34876;SDS011;21086;44.780;17.194;2023-02-01T19:48:21;58.80;;;38.83;;
34876;SDS011;21086;44.780;17.194;2023-02-01T19:50:48;145.52;;;92.82;;
34876;SDS011;21086;44.780;17.194;2023-02-01T19:53:16;126.32;;;84.60;;
34876;SDS011;21086;44.780;17.194;2023-02-01T19:55:44;140.80;;;88.93;;
34876;SDS011;21086;44.780;17.194;2023-02-01T19:58:11;116.85;;;81.32;;
34876;SDS011;21086;44.780;17.194;2023-02-01T20:00:39;131.30;;;83.28;;
34876;SDS011;21086;44.780;17.194;2023-02-01T20:03:07;111.95;;;75.47;;
34876;SDS011;21086;44.780;17.194;2023-02-01T20:05:34;111.93;;;76.75;;
34876;SDS011;21086;44.780;17.194;2023-02-01T20:08:00;68.00;;;46.13;;
34876;SDS011;21086;44.780;17.194;2023-02-01T20:10:28;87.68;;;57.90;;
34876;SDS011;21086;44.780;17.194;2023-02-01T20:12:55;118.45;;;79.40;;
34876;SDS011;21086;44.780;17.194;2023-02-01T20:15:22;97.10;;;62.38;;
34876;SDS011;21086;44.780;17.194;2023-02-01T20:17:53;94.35;;;63.72;;
34876;SDS011;21086;44.780;17.194;2023-02-01T20:20:20;88.32;;;58.58;;
34876;SDS011;21086;44.780;17.194;2023-02-01T20:22:47;75.35;;;50.75;;
34876;SDS011;21086;44.780;17.194;2023-02-01T20:25:14;70.60;;;44.95;;
34876;SDS011;21086;44.780;17.194;2023-02-01T20:27:41;69.25;;;45.60;;
34876;SDS011;21086;44.780;17.194;2023-02-01T20:30:08;78.47;;;50.55;;
34876;SDS011;21086;44.780;17.194;2023-02-01T20:32:39;66.80;;;45.08;;
34876;SDS011;21086;44.780;17.194;2023-02-01T20:35:06;73.57;;;49.30;;